sensor_id;sensor_type;location;lat;lon;timestamp;temperature;humidity
11089;DHT22;5598;48.648;8.908;2023-07-16T00:01:47;19.80;99.90
11089;DHT22;5598;48.648;8.908;2023-07-16T00:04:14;19.80;99.90
11089;DHT22;5598;48.648;8.908;2023-07-16T00:06:41;19.80;99.90
11089;DHT22;5598;48.648;8.908;2023-07-16T00:09:08;19.70;99.90
11089;DHT22;5598;48.648;8.908;2023-07-16T00:11:34;19.60;99.90
11089;DHT22;5598;48.648;8.908;2023-07-16T00:14:01;19.40;99.90
11089;DHT22;5598;48.648;8.908;2023-07-16T00:16:29;19.50;99.90
11089;DHT22;5598;48.648;8.908;2023-07-16T00:18:56;19.50;99.90
11089;DHT22;5598;48.648;8.908;2023-07-16T00:21:23;19.40;99.90
11089;DHT22;5598;48.648;8.908;2023-07-16T00:23:50;19.40;99.90
11089;DHT22;5598;48.648;8.908;2023-07-16T00:26:17;19.40;99.90
11089;DHT22;5598;48.648;8.908;2023-07-16T00:28:44;19.40;99.90
11089;DHT22;5598;48.648;8.908;2023-07-16T00:31:10;19.30;99.90
11089;DHT22;5598;48.648;8.908;2023-07-16T00:33:39;19.20;99.90
11089;DHT22;5598;48.648;8.908;2023-07-16T00:36:05;19.10;99.90
11089;DHT22;5598;48.648;8.908;2023-07-16T00:38:32;19.10;99.90
11089;DHT22;5598;48.648;8.908;2023-07-16T00:40:59;19.10;99.90
11089;DHT22;5598;48.648;8.908;2023-07-16T00:43:26;19.00;99.90
11089;DHT22;5598;48.648;8.908;2023-07-16T00:45:53;19.00;99.90
11089;DHT22;5598;48.648;8.908;2023-07-16T00:48:20;19.00;99.90
11089;DHT22;5598;48.648;8.908;2023-07-16T00:50:51;19.00;99.90
11089;DHT22;5598;48.648;8.908;2023-07-16T00:53:19;18.80;99.90
11089;DHT22;5598;48.648;8.908;2023-07-16T00:55:46;18.90;99.90
11089;DHT22;5598;48.648;8.908;2023-07-16T00:58:13;18.90;99.90
11089;DHT22;5598;48.648;8.908;2023-07-16T01:00:41;18.90;99.90
11089;DHT22;5598;48.648;8.908;2023-07-16T01:03:10;18.80;99.90
11089;DHT22;5598;48.648;8.908;2023-07-16T01:05:44;18.90;99.90
11089;DHT22;5598;48.648;8.908;2023-07-16T01:08:14;18.90;99.90
11089;DHT22;5598;48.648;8.908;2023-07-16T01:10:44;18.80;99.90
11089;DHT22;5598;48.648;8.908;2023-07-16T01:13:10;18.80;99.90
11089;DHT22;5598;48.648;8.908;2023-07-16T01:15:37;18.80;99.90
11089;DHT22;5598;48.648;8.908;2023-07-16T01:18:05;18.90;99.90
11089;DHT22;5598;48.648;8.908;2023-07-16T01:20:32;18.90;99.90
11089;DHT22;5598;48.648;8.908;2023-07-16T01:26:08;18.80;99.90
11089;DHT22;5598;48.648;8.908;2023-07-16T01:29:09;18.70;99.90
11089;DHT22;5598;48.648;8.908;2023-07-16T01:31:37;18.70;99.90
11089;DHT22;5598;48.648;8.908;2023-07-16T01:34:05;18.70;99.90
11089;DHT22;5598;48.648;8.908;2023-07-16T01:36:33;18.60;99.90
11089;DHT22;5598;48.648;8.908;2023-07-16T01:39:01;18.60;99.90
11089;DHT22;5598;48.648;8.908;2023-07-16T01:41:28;18.60;99.90
11089;DHT22;5598;48.648;8.908;2023-07-16T01:43:55;18.60;99.90
11089;DHT22;5598;48.648;8.908;2023-07-16T01:46:23;18.60;99.90
11089;DHT22;5598;48.648;8.908;2023-07-16T01:48:50;18.60;99.90
11089;DHT22;5598;48.648;8.908;2023-07-16T01:51:16;18.50;99.90
11089;DHT22;5598;48.648;8.908;2023-07-16T01:53:45;18.60;99.90
11089;DHT22;5598;48.648;8.908;2023-07-16T01:56:12;18.50;99.90
11089;DHT22;5598;48.648;8.908;2023-07-16T01:58:39;18.50;99.90
11089;DHT22;5598;48.648;8.908;2023-07-16T02:01:06;18.50;99.90
11089;DHT22;5598;48.648;8.908;2023-07-16T02:03:34;18.50;99.90
11089;DHT22;5598;48.648;8.908;2023-07-16T02:06:01;18.40;99.90
11089;DHT22;5598;48.648;8.908;2023-07-16T02:08:28;18.40;99.90
11089;DHT22;5598;48.648;8.908;2023-07-16T02:10:54;18.40;99.90
11089;DHT22;5598;48.648;8.908;2023-07-16T02:13:21;18.40;99.90
11089;DHT22;5598;48.648;8.908;2023-07-16T02:15:48;18.40;99.90
11089;DHT22;5598;48.648;8.908;2023-07-16T02:18:15;18.40;99.90
11089;DHT22;5598;48.648;8.908;2023-07-16T02:20:44;18.40;99.90
11089;DHT22;5598;48.648;8.908;2023-07-16T02:23:11;18.40;99.90
11089;DHT22;5598;48.648;8.908;2023-07-16T02:25:38;18.30;99.90
11089;DHT22;5598;48.648;8.908;2023-07-16T02:28:04;18.30;99.90
11089;DHT22;5598;48.648;8.908;2023-07-16T02:30:31;18.30;99.90
11089;DHT22;5598;48.648;8.908;2023-07-16T02:32:58;18.20;99.90
11089;DHT22;5598;48.648;8.908;2023-07-16T02:35:25;18.20;99.90
11089;DHT22;5598;48.648;8.908;2023-07-16T02:37:53;18.20;99.90
11089;DHT22;5598;48.648;8.908;2023-07-16T02:40:20;18.00;99.90
11089;DHT22;5598;48.648;8.908;2023-07-16T02:42:47;18.20;99.90
11089;DHT22;5598;48.648;8.908;2023-07-16T02:45:14;18.20;99.90
11089;DHT22;5598;48.648;8.908;2023-07-16T02:47:40;18.20;99.90
11089;DHT22;5598;48.648;8.908;2023-07-16T02:50:08;18.20;99.90
11089;DHT22;5598;48.648;8.908;2023-07-16T02:52:35;18.10;99.90
11089;DHT22;5598;48.648;8.908;2023-07-16T02:55:03;18.10;99.90
11089;DHT22;5598;48.648;8.908;2023-07-16T02:57:30;18.10;99.90
11089;DHT22;5598;48.648;8.908;2023-07-16T02:59:57;18.00;99.90
11089;DHT22;5598;48.648;8.908;2023-07-16T03:02:24;18.00;99.90
11089;DHT22;5598;48.648;8.908;2023-07-16T03:04:51;18.00;99.90
11089;DHT22;5598;48.648;8.908;2023-07-16T03:07:17;18.00;99.90
11089;DHT22;5598;48.648;8.908;2023-07-16T03:09:44;18.10;99.90
11089;DHT22;5598;48.648;8.908;2023-07-16T03:12:12;18.00;99.90
11089;DHT22;5598;48.648;8.908;2023-07-16T03:14:39;17.90;99.90
11089;DHT22;5598;48.648;8.908;2023-07-16T03:17:06;17.90;99.90
11089;DHT22;5598;48.648;8.908;2023-07-16T03:19:33;17.90;99.90
11089;DHT22;5598;48.648;8.908;2023-07-16T03:21:59;17.80;99.90
11089;DHT22;5598;48.648;8.908;2023-07-16T03:24:26;17.80;99.90
11089;DHT22;5598;48.648;8.908;2023-07-16T03:26:53;17.90;99.90
11089;DHT22;5598;48.648;8.908;2023-07-16T03:29:21;17.80;99.90
11089;DHT22;5598;48.648;8.908;2023-07-16T03:31:48;17.90;99.90
11089;DHT22;5598;48.648;8.908;2023-07-16T03:34:14;17.90;99.90
11089;DHT22;5598;48.648;8.908;2023-07-16T03:36:41;17.90;99.90
11089;DHT22;5598;48.648;8.908;2023-07-16T03:39:08;18.00;99.90
11089;DHT22;5598;48.648;8.908;2023-07-16T03:41:35;18.00;99.90
11089;DHT22;5598;48.648;8.908;2023-07-16T03:44:01;18.00;99.90
11089;DHT22;5598;48.648;8.908;2023-07-16T03:46:30;17.90;99.90
11089;DHT22;5598;48.648;8.908;2023-07-16T03:48:56;17.90;99.90
11089;DHT22;5598;48.648;8.908;2023-07-16T03:51:23;18.00;99.90
11089;DHT22;5598;48.648;8.908;2023-07-16T03:53:50;17.90;99.90
11089;DHT22;5598;48.648;8.908;2023-07-16T03:56:17;17.70;99.90
11089;DHT22;5598;48.648;8.908;2023-07-16T03:58:43;17.70;99.90
11089;DHT22;5598;48.648;8.908;2023-07-16T04:01:10;18.00;99.90
11089;DHT22;5598;48.648;8.908;2023-07-16T04:03:38;17.70;99.90
11089;DHT22;5598;48.648;8.908;2023-07-16T04:06:07;17.80;99.90
11089;DHT22;5598;48.648;8.908;2023-07-16T04:08:35;17.80;99.90
11089;DHT22;5598;48.648;8.908;2023-07-16T04:11:02;17.80;99.90
11089;DHT22;5598;48.648;8.908;2023-07-16T04:13:29;17.70;99.90
11089;DHT22;5598;48.648;8.908;2023-07-16T04:15:56;17.80;99.90
11089;DHT22;5598;48.648;8.908;2023-07-16T04:18:23;17.80;99.90
11089;DHT22;5598;48.648;8.908;2023-07-16T04:20:51;17.80;99.90
11089;DHT22;5598;48.648;8.908;2023-07-16T04:23:19;17.80;99.90
11089;DHT22;5598;48.648;8.908;2023-07-16T04:25:46;17.80;99.90
11089;DHT22;5598;48.648;8.908;2023-07-16T04:28:13;17.90;99.90
11089;DHT22;5598;48.648;8.908;2023-07-16T04:30:40;17.90;99.90
11089;DHT22;5598;48.648;8.908;2023-07-16T04:33:07;17.90;99.90
11089;DHT22;5598;48.648;8.908;2023-07-16T04:35:35;18.00;99.90
11089;DHT22;5598;48.648;8.908;2023-07-16T04:38:03;17.90;99.90
11089;DHT22;5598;48.648;8.908;2023-07-16T04:40:30;18.00;99.90
11089;DHT22;5598;48.648;8.908;2023-07-16T04:42:56;17.90;99.90
11089;DHT22;5598;48.648;8.908;2023-07-16T04:45:23;17.90;99.90
11089;DHT22;5598;48.648;8.908;2023-07-16T04:47:50;17.80;99.90
11089;DHT22;5598;48.648;8.908;2023-07-16T04:50:17;17.70;99.90
11089;DHT22;5598;48.648;8.908;2023-07-16T04:52:44;17.70;99.90
11089;DHT22;5598;48.648;8.908;2023-07-16T04:55:12;17.70;99.90
11089;DHT22;5598;48.648;8.908;2023-07-16T04:57:39;17.60;99.90
11089;DHT22;5598;48.648;8.908;2023-07-16T05:00:07;17.60;99.90
11089;DHT22;5598;48.648;8.908;2023-07-16T05:02:34;17.60;99.90
11089;DHT22;5598;48.648;8.908;2023-07-16T05:05:01;17.60;99.90
11089;DHT22;5598;48.648;8.908;2023-07-16T05:07:28;17.60;99.90
11089;DHT22;5598;48.648;8.908;2023-07-16T05:09:54;17.60;99.90
11089;DHT22;5598;48.648;8.908;2023-07-16T05:12:23;17.50;99.90
11089;DHT22;5598;48.648;8.908;2023-07-16T05:14:49;17.50;99.90
11089;DHT22;5598;48.648;8.908;2023-07-16T05:17:16;17.60;99.90
11089;DHT22;5598;48.648;8.908;2023-07-16T05:19:43;17.60;99.90
11089;DHT22;5598;48.648;8.908;2023-07-16T05:22:10;17.70;99.90
11089;DHT22;5598;48.648;8.908;2023-07-16T05:24:37;17.60;99.90
11089;DHT22;5598;48.648;8.908;2023-07-16T05:27:04;17.60;99.90
11089;DHT22;5598;48.648;8.908;2023-07-16T05:29:32;17.60;99.90
11089;DHT22;5598;48.648;8.908;2023-07-16T05:31:59;17.50;99.90
11089;DHT22;5598;48.648;8.908;2023-07-16T05:34:26;17.60;99.90
11089;DHT22;5598;48.648;8.908;2023-07-16T05:36:54;17.60;99.90
11089;DHT22;5598;48.648;8.908;2023-07-16T05:39:21;17.70;99.90
11089;DHT22;5598;48.648;8.908;2023-07-16T05:41:48;17.60;99.90
11089;DHT22;5598;48.648;8.908;2023-07-16T05:44:14;17.60;99.90
11089;DHT22;5598;48.648;8.908;2023-07-16T05:46:43;17.60;99.90
11089;DHT22;5598;48.648;8.908;2023-07-16T05:49:09;17.50;99.90
11089;DHT22;5598;48.648;8.908;2023-07-16T05:51:36;17.60;99.90
11089;DHT22;5598;48.648;8.908;2023-07-16T05:54:03;17.60;99.90
11089;DHT22;5598;48.648;8.908;2023-07-16T05:56:30;17.60;99.90
11089;DHT22;5598;48.648;8.908;2023-07-16T05:58:57;17.60;99.90
11089;DHT22;5598;48.648;8.908;2023-07-16T06:01:24;17.50;99.90
11089;DHT22;5598;48.648;8.908;2023-07-16T06:03:52;17.50;99.90
11089;DHT22;5598;48.648;8.908;2023-07-16T06:06:19;17.50;99.90
11089;DHT22;5598;48.648;8.908;2023-07-16T06:08:46;17.50;99.90
11089;DHT22;5598;48.648;8.908;2023-07-16T06:11:13;17.60;99.90
11089;DHT22;5598;48.648;8.908;2023-07-16T06:13:40;17.50;99.90
11089;DHT22;5598;48.648;8.908;2023-07-16T06:16:07;17.50;99.90
11089;DHT22;5598;48.648;8.908;2023-07-16T06:18:34;17.50;99.90
11089;DHT22;5598;48.648;8.908;2023-07-16T06:21:02;17.50;99.90
11089;DHT22;5598;48.648;8.908;2023-07-16T06:23:29;17.50;99.90
11089;DHT22;5598;48.648;8.908;2023-07-16T06:25:56;17.40;99.90
11089;DHT22;5598;48.648;8.908;2023-07-16T06:28:23;17.60;99.90
11089;DHT22;5598;48.648;8.908;2023-07-16T06:30:50;17.70;99.90
11089;DHT22;5598;48.648;8.908;2023-07-16T06:33:18;17.60;99.90
11089;DHT22;5598;48.648;8.908;2023-07-16T06:35:45;17.60;99.90
11089;DHT22;5598;48.648;8.908;2023-07-16T06:38:14;17.70;99.90
11089;DHT22;5598;48.648;8.908;2023-07-16T06:40:46;17.70;99.90
11089;DHT22;5598;48.648;8.908;2023-07-16T06:43:13;17.70;99.90
11089;DHT22;5598;48.648;8.908;2023-07-16T06:45:40;17.70;99.90
11089;DHT22;5598;48.648;8.908;2023-07-16T06:48:07;17.70;99.90
11089;DHT22;5598;48.648;8.908;2023-07-16T06:50:34;17.90;99.90
11089;DHT22;5598;48.648;8.908;2023-07-16T06:53:01;17.70;99.90
11089;DHT22;5598;48.648;8.908;2023-07-16T06:55:29;17.60;99.90
11089;DHT22;5598;48.648;8.908;2023-07-16T06:57:56;17.60;99.90
11089;DHT22;5598;48.648;8.908;2023-07-16T07:00:23;17.60;99.90
11089;DHT22;5598;48.648;8.908;2023-07-16T07:02:49;17.70;99.90
11089;DHT22;5598;48.648;8.908;2023-07-16T07:05:16;17.70;99.90
11089;DHT22;5598;48.648;8.908;2023-07-16T07:07:43;17.70;99.90
11089;DHT22;5598;48.648;8.908;2023-07-16T07:10:11;17.70;99.90
11089;DHT22;5598;48.648;8.908;2023-07-16T07:12:39;17.90;99.90
11089;DHT22;5598;48.648;8.908;2023-07-16T07:15:07;17.80;99.90
11089;DHT22;5598;48.648;8.908;2023-07-16T07:17:34;17.90;99.90
11089;DHT22;5598;48.648;8.908;2023-07-16T07:20:02;18.00;99.90
11089;DHT22;5598;48.648;8.908;2023-07-16T07:22:30;18.00;99.90
11089;DHT22;5598;48.648;8.908;2023-07-16T07:24:57;18.20;99.90
11089;DHT22;5598;48.648;8.908;2023-07-16T07:27:24;18.10;99.90
11089;DHT22;5598;48.648;8.908;2023-07-16T07:29:52;18.30;99.90
11089;DHT22;5598;48.648;8.908;2023-07-16T07:32:21;18.30;99.90
11089;DHT22;5598;48.648;8.908;2023-07-16T07:34:48;18.50;99.90
11089;DHT22;5598;48.648;8.908;2023-07-16T07:37:15;18.50;99.90
11089;DHT22;5598;48.648;8.908;2023-07-16T07:39:42;18.60;99.90
11089;DHT22;5598;48.648;8.908;2023-07-16T07:42:11;18.60;99.90
11089;DHT22;5598;48.648;8.908;2023-07-16T07:44:37;18.70;99.90
11089;DHT22;5598;48.648;8.908;2023-07-16T07:47:06;18.70;99.90
11089;DHT22;5598;48.648;8.908;2023-07-16T07:49:34;18.70;99.90
11089;DHT22;5598;48.648;8.908;2023-07-16T07:52:01;18.70;99.90
11089;DHT22;5598;48.648;8.908;2023-07-16T07:54:27;18.70;99.90
11089;DHT22;5598;48.648;8.908;2023-07-16T07:56:54;18.70;99.90
11089;DHT22;5598;48.648;8.908;2023-07-16T07:59:21;18.60;99.90
11089;DHT22;5598;48.648;8.908;2023-07-16T08:01:48;18.60;99.90
11089;DHT22;5598;48.648;8.908;2023-07-16T08:04:16;18.80;99.90
11089;DHT22;5598;48.648;8.908;2023-07-16T08:06:42;18.90;99.90
11089;DHT22;5598;48.648;8.908;2023-07-16T08:09:09;19.00;99.90
11089;DHT22;5598;48.648;8.908;2023-07-16T08:11:36;19.10;99.90
11089;DHT22;5598;48.648;8.908;2023-07-16T08:14:03;19.20;99.90
11089;DHT22;5598;48.648;8.908;2023-07-16T08:16:30;19.50;99.90
11089;DHT22;5598;48.648;8.908;2023-07-16T08:18:57;19.70;99.90
11089;DHT22;5598;48.648;8.908;2023-07-16T08:21:25;19.90;99.90
11089;DHT22;5598;48.648;8.908;2023-07-16T08:23:52;20.00;99.90
11089;DHT22;5598;48.648;8.908;2023-07-16T08:26:19;20.10;99.90
11089;DHT22;5598;48.648;8.908;2023-07-16T08:28:46;20.20;99.90
11089;DHT22;5598;48.648;8.908;2023-07-16T08:31:12;20.20;99.90
11089;DHT22;5598;48.648;8.908;2023-07-16T08:33:39;20.30;99.90
11089;DHT22;5598;48.648;8.908;2023-07-16T08:36:06;20.60;99.20
11089;DHT22;5598;48.648;8.908;2023-07-16T08:38:35;20.60;99.70
11089;DHT22;5598;48.648;8.908;2023-07-16T08:41:00;20.70;98.80
11089;DHT22;5598;48.648;8.908;2023-07-16T08:43:28;20.70;99.30
11089;DHT22;5598;48.648;8.908;2023-07-16T08:45:56;20.50;97.40
11089;DHT22;5598;48.648;8.908;2023-07-16T08:48:23;20.60;99.90
11089;DHT22;5598;48.648;8.908;2023-07-16T08:50:51;20.90;98.20
11089;DHT22;5598;48.648;8.908;2023-07-16T08:53:18;21.40;97.30
11089;DHT22;5598;48.648;8.908;2023-07-16T08:55:47;21.70;95.00
11089;DHT22;5598;48.648;8.908;2023-07-16T08:58:15;22.00;95.80
11089;DHT22;5598;48.648;8.908;2023-07-16T09:00:42;22.20;94.40
11089;DHT22;5598;48.648;8.908;2023-07-16T09:03:10;22.40;93.70
11089;DHT22;5598;48.648;8.908;2023-07-16T09:05:39;22.30;94.10
11089;DHT22;5598;48.648;8.908;2023-07-16T09:08:05;22.20;93.30
11089;DHT22;5598;48.648;8.908;2023-07-16T09:10:32;22.10;94.20
11089;DHT22;5598;48.648;8.908;2023-07-16T09:13:01;22.10;94.40
11089;DHT22;5598;48.648;8.908;2023-07-16T09:15:29;22.10;94.80
11089;DHT22;5598;48.648;8.908;2023-07-16T09:17:56;22.00;93.50
11089;DHT22;5598;48.648;8.908;2023-07-16T09:20:23;21.70;94.00
11089;DHT22;5598;48.648;8.908;2023-07-16T09:22:50;21.60;94.30
11089;DHT22;5598;48.648;8.908;2023-07-16T09:25:24;21.90;95.30
11089;DHT22;5598;48.648;8.908;2023-07-16T09:27:51;22.00;92.80
11089;DHT22;5598;48.648;8.908;2023-07-16T09:30:20;22.00;92.70
11089;DHT22;5598;48.648;8.908;2023-07-16T09:32:47;22.20;95.70
11089;DHT22;5598;48.648;8.908;2023-07-16T09:35:14;22.50;93.60
11089;DHT22;5598;48.648;8.908;2023-07-16T09:37:43;22.60;92.80
11089;DHT22;5598;48.648;8.908;2023-07-16T09:40:11;22.80;93.10
11089;DHT22;5598;48.648;8.908;2023-07-16T09:42:40;22.90;90.00
11089;DHT22;5598;48.648;8.908;2023-07-16T09:45:08;22.90;90.50
11089;DHT22;5598;48.648;8.908;2023-07-16T09:47:37;22.90;90.50
11089;DHT22;5598;48.648;8.908;2023-07-16T09:50:04;23.20;90.50
11089;DHT22;5598;48.648;8.908;2023-07-16T09:52:32;23.30;90.20
11089;DHT22;5598;48.648;8.908;2023-07-16T09:55:01;23.40;91.00
11089;DHT22;5598;48.648;8.908;2023-07-16T09:57:32;23.60;89.80
11089;DHT22;5598;48.648;8.908;2023-07-16T10:00:03;23.80;87.70
11089;DHT22;5598;48.648;8.908;2023-07-16T10:02:33;24.10;87.80
11089;DHT22;5598;48.648;8.908;2023-07-16T10:05:11;24.50;85.60
11089;DHT22;5598;48.648;8.908;2023-07-16T10:07:38;24.70;84.30
11089;DHT22;5598;48.648;8.908;2023-07-16T10:10:08;24.80;84.10
11089;DHT22;5598;48.648;8.908;2023-07-16T10:12:36;24.70;84.00
11089;DHT22;5598;48.648;8.908;2023-07-16T10:15:05;24.70;82.80
11089;DHT22;5598;48.648;8.908;2023-07-16T10:17:32;24.70;83.20
11089;DHT22;5598;48.648;8.908;2023-07-16T10:20:02;24.70;82.10
11089;DHT22;5598;48.648;8.908;2023-07-16T10:22:35;24.70;82.90
11089;DHT22;5598;48.648;8.908;2023-07-16T10:25:03;24.80;79.70
11089;DHT22;5598;48.648;8.908;2023-07-16T10:27:32;24.80;81.20
11089;DHT22;5598;48.648;8.908;2023-07-16T10:29:59;24.90;80.70
11089;DHT22;5598;48.648;8.908;2023-07-16T10:32:29;25.00;82.90
11089;DHT22;5598;48.648;8.908;2023-07-16T10:34:57;25.10;84.20
11089;DHT22;5598;48.648;8.908;2023-07-16T10:37:25;25.20;79.60
11089;DHT22;5598;48.648;8.908;2023-07-16T10:39:53;25.40;79.30
11089;DHT22;5598;48.648;8.908;2023-07-16T10:42:20;25.50;79.10
11089;DHT22;5598;48.648;8.908;2023-07-16T10:44:49;25.50;82.10
11089;DHT22;5598;48.648;8.908;2023-07-16T10:47:22;25.50;80.10
11089;DHT22;5598;48.648;8.908;2023-07-16T10:49:50;25.40;80.80
11089;DHT22;5598;48.648;8.908;2023-07-16T10:52:18;25.40;80.20
11089;DHT22;5598;48.648;8.908;2023-07-16T10:54:46;25.40;79.30
11089;DHT22;5598;48.648;8.908;2023-07-16T10:57:13;25.30;77.60
11089;DHT22;5598;48.648;8.908;2023-07-16T10:59:42;25.30;80.90
11089;DHT22;5598;48.648;8.908;2023-07-16T11:02:11;25.30;81.30
11089;DHT22;5598;48.648;8.908;2023-07-16T11:04:38;25.60;83.10
11089;DHT22;5598;48.648;8.908;2023-07-16T11:07:07;25.90;81.20
11089;DHT22;5598;48.648;8.908;2023-07-16T11:09:34;26.20;76.10
11089;DHT22;5598;48.648;8.908;2023-07-16T11:12:10;26.30;77.10
11089;DHT22;5598;48.648;8.908;2023-07-16T11:14:37;26.50;78.10
11089;DHT22;5598;48.648;8.908;2023-07-16T11:17:05;26.60;79.10
11089;DHT22;5598;48.648;8.908;2023-07-16T11:19:34;26.70;79.30
11089;DHT22;5598;48.648;8.908;2023-07-16T11:22:01;26.90;73.70
11089;DHT22;5598;48.648;8.908;2023-07-16T11:24:31;27.00;72.50
11089;DHT22;5598;48.648;8.908;2023-07-16T11:27:02;26.80;74.30
11089;DHT22;5598;48.648;8.908;2023-07-16T11:29:35;26.90;74.50
11089;DHT22;5598;48.648;8.908;2023-07-16T11:32:03;27.10;74.60
11089;DHT22;5598;48.648;8.908;2023-07-16T11:34:30;27.20;70.90
11089;DHT22;5598;48.648;8.908;2023-07-16T11:37:07;27.20;73.30
11089;DHT22;5598;48.648;8.908;2023-07-16T11:39:34;27.20;72.00
11089;DHT22;5598;48.648;8.908;2023-07-16T11:42:02;27.40;72.30
11089;DHT22;5598;48.648;8.908;2023-07-16T11:44:33;27.60;70.90
11089;DHT22;5598;48.648;8.908;2023-07-16T11:47:02;27.60;71.90
11089;DHT22;5598;48.648;8.908;2023-07-16T11:49:29;27.80;70.20
11089;DHT22;5598;48.648;8.908;2023-07-16T11:51:56;27.80;68.50
11089;DHT22;5598;48.648;8.908;2023-07-16T11:54:23;27.50;69.60
11089;DHT22;5598;48.648;8.908;2023-07-16T11:56:50;27.20;68.80
11089;DHT22;5598;48.648;8.908;2023-07-16T11:59:17;27.10;70.60
11089;DHT22;5598;48.648;8.908;2023-07-16T12:01:46;27.10;70.80
11089;DHT22;5598;48.648;8.908;2023-07-16T12:04:15;27.20;71.40
11089;DHT22;5598;48.648;8.908;2023-07-16T12:06:42;27.30;71.10
11089;DHT22;5598;48.648;8.908;2023-07-16T12:09:09;27.40;70.10
11089;DHT22;5598;48.648;8.908;2023-07-16T12:11:36;27.60;70.20
11089;DHT22;5598;48.648;8.908;2023-07-16T12:14:04;27.60;69.60
11089;DHT22;5598;48.648;8.908;2023-07-16T12:16:31;27.40;71.80
11089;DHT22;5598;48.648;8.908;2023-07-16T12:18:58;27.50;72.90
11089;DHT22;5598;48.648;8.908;2023-07-16T12:21:26;27.70;71.60
11089;DHT22;5598;48.648;8.908;2023-07-16T12:23:53;27.80;69.20
11089;DHT22;5598;48.648;8.908;2023-07-16T12:26:20;27.70;69.20
11089;DHT22;5598;48.648;8.908;2023-07-16T12:28:47;27.80;71.50
11089;DHT22;5598;48.648;8.908;2023-07-16T12:31:14;27.80;67.80
11089;DHT22;5598;48.648;8.908;2023-07-16T12:33:42;27.70;68.40
11089;DHT22;5598;48.648;8.908;2023-07-16T12:36:08;27.70;68.50
11089;DHT22;5598;48.648;8.908;2023-07-16T12:38:37;27.50;72.10
11089;DHT22;5598;48.648;8.908;2023-07-16T12:41:03;27.50;67.40
11089;DHT22;5598;48.648;8.908;2023-07-16T12:43:30;27.60;68.40
11089;DHT22;5598;48.648;8.908;2023-07-16T12:45:59;27.60;67.00
11089;DHT22;5598;48.648;8.908;2023-07-16T12:48:26;27.50;68.80
11089;DHT22;5598;48.648;8.908;2023-07-16T12:50:53;27.30;69.40
11089;DHT22;5598;48.648;8.908;2023-07-16T12:53:23;27.30;69.20
11089;DHT22;5598;48.648;8.908;2023-07-16T12:55:52;27.20;69.10
11089;DHT22;5598;48.648;8.908;2023-07-16T12:58:19;27.30;70.30
11089;DHT22;5598;48.648;8.908;2023-07-16T13:00:46;27.40;67.20
11089;DHT22;5598;48.648;8.908;2023-07-16T13:03:13;27.30;66.80
11089;DHT22;5598;48.648;8.908;2023-07-16T13:05:42;27.40;67.20
11089;DHT22;5598;48.648;8.908;2023-07-16T13:08:09;27.40;67.90
11089;DHT22;5598;48.648;8.908;2023-07-16T13:10:36;27.40;66.80
11089;DHT22;5598;48.648;8.908;2023-07-16T13:13:04;27.40;68.50
11089;DHT22;5598;48.648;8.908;2023-07-16T13:15:31;27.40;69.00
11089;DHT22;5598;48.648;8.908;2023-07-16T13:17:58;27.40;68.50
11089;DHT22;5598;48.648;8.908;2023-07-16T13:20:25;27.30;67.80
11089;DHT22;5598;48.648;8.908;2023-07-16T13:22:52;27.40;68.10
11089;DHT22;5598;48.648;8.908;2023-07-16T13:25:18;27.40;68.20
11089;DHT22;5598;48.648;8.908;2023-07-16T13:27:45;27.50;66.30
11089;DHT22;5598;48.648;8.908;2023-07-16T13:30:15;27.40;67.50
11089;DHT22;5598;48.648;8.908;2023-07-16T13:32:42;27.30;66.70
11089;DHT22;5598;48.648;8.908;2023-07-16T13:35:09;27.30;68.20
11089;DHT22;5598;48.648;8.908;2023-07-16T13:37:36;27.30;67.00
11089;DHT22;5598;48.648;8.908;2023-07-16T13:40:04;27.30;67.70
11089;DHT22;5598;48.648;8.908;2023-07-16T13:42:31;27.20;67.30
11089;DHT22;5598;48.648;8.908;2023-07-16T13:44:57;27.20;68.60
11089;DHT22;5598;48.648;8.908;2023-07-16T13:47:26;27.20;67.20
11089;DHT22;5598;48.648;8.908;2023-07-16T13:49:52;27.10;67.20
11089;DHT22;5598;48.648;8.908;2023-07-16T13:52:19;26.90;66.50
11089;DHT22;5598;48.648;8.908;2023-07-16T13:54:46;26.60;67.20
11089;DHT22;5598;48.648;8.908;2023-07-16T13:57:13;26.40;67.40
11089;DHT22;5598;48.648;8.908;2023-07-16T13:59:39;26.40;68.30
11089;DHT22;5598;48.648;8.908;2023-07-16T14:02:06;26.30;68.50
11089;DHT22;5598;48.648;8.908;2023-07-16T14:04:35;26.40;69.20
11089;DHT22;5598;48.648;8.908;2023-07-16T14:07:02;26.40;69.60
11089;DHT22;5598;48.648;8.908;2023-07-16T14:09:29;26.40;69.80
11089;DHT22;5598;48.648;8.908;2023-07-16T14:11:56;26.40;68.70
11089;DHT22;5598;48.648;8.908;2023-07-16T14:14:23;26.50;68.90
11089;DHT22;5598;48.648;8.908;2023-07-16T14:16:50;26.50;68.90
11089;DHT22;5598;48.648;8.908;2023-07-16T14:19:16;26.60;70.20
11089;DHT22;5598;48.648;8.908;2023-07-16T14:21:44;26.70;68.10
11089;DHT22;5598;48.648;8.908;2023-07-16T14:24:11;26.70;65.50
11089;DHT22;5598;48.648;8.908;2023-07-16T14:26:38;26.70;66.00
11089;DHT22;5598;48.648;8.908;2023-07-16T14:29:05;26.60;67.60
11089;DHT22;5598;48.648;8.908;2023-07-16T14:31:32;26.60;67.60
11089;DHT22;5598;48.648;8.908;2023-07-16T14:33:59;26.60;66.10
11089;DHT22;5598;48.648;8.908;2023-07-16T14:36:26;26.50;65.80
11089;DHT22;5598;48.648;8.908;2023-07-16T14:38:54;26.30;65.40
11089;DHT22;5598;48.648;8.908;2023-07-16T14:41:21;26.20;65.00
11089;DHT22;5598;48.648;8.908;2023-07-16T14:43:47;26.00;65.20
11089;DHT22;5598;48.648;8.908;2023-07-16T14:46:15;25.90;66.40
11089;DHT22;5598;48.648;8.908;2023-07-16T14:48:42;25.80;67.70
11089;DHT22;5598;48.648;8.908;2023-07-16T14:51:09;25.80;66.60
11089;DHT22;5598;48.648;8.908;2023-07-16T14:53:36;25.80;68.00
11089;DHT22;5598;48.648;8.908;2023-07-16T14:56:05;25.80;70.50
11089;DHT22;5598;48.648;8.908;2023-07-16T14:58:33;25.90;67.00
11089;DHT22;5598;48.648;8.908;2023-07-16T15:01:00;25.90;69.20
11089;DHT22;5598;48.648;8.908;2023-07-16T15:03:29;25.90;67.80
11089;DHT22;5598;48.648;8.908;2023-07-16T15:05:57;26.00;67.30
11089;DHT22;5598;48.648;8.908;2023-07-16T15:08:24;26.00;66.00
11089;DHT22;5598;48.648;8.908;2023-07-16T15:10:52;26.10;67.70
11089;DHT22;5598;48.648;8.908;2023-07-16T15:13:21;26.10;69.90
11089;DHT22;5598;48.648;8.908;2023-07-16T15:15:50;26.20;68.80
11089;DHT22;5598;48.648;8.908;2023-07-16T15:18:18;26.30;67.00
11089;DHT22;5598;48.648;8.908;2023-07-16T15:20:45;26.30;66.50
11089;DHT22;5598;48.648;8.908;2023-07-16T15:23:12;26.30;66.00
11089;DHT22;5598;48.648;8.908;2023-07-16T15:25:40;26.20;67.70
11089;DHT22;5598;48.648;8.908;2023-07-16T15:28:08;26.20;67.80
11089;DHT22;5598;48.648;8.908;2023-07-16T15:30:36;26.20;68.20
11089;DHT22;5598;48.648;8.908;2023-07-16T15:33:02;26.10;67.30
11089;DHT22;5598;48.648;8.908;2023-07-16T15:35:29;26.00;68.90
11089;DHT22;5598;48.648;8.908;2023-07-16T15:37:56;26.00;69.10
11089;DHT22;5598;48.648;8.908;2023-07-16T15:40:25;26.00;68.60
11089;DHT22;5598;48.648;8.908;2023-07-16T15:42:52;25.90;69.80
11089;DHT22;5598;48.648;8.908;2023-07-16T15:45:19;25.90;68.00
11089;DHT22;5598;48.648;8.908;2023-07-16T15:47:47;26.00;68.20
11089;DHT22;5598;48.648;8.908;2023-07-16T15:50:16;26.00;68.90